createdAt,value
2022-11-15T00:01:19.001Z,13.23
2022-11-15T00:03:46.919Z,9.73
2022-11-15T00:06:14.464Z,13.03
2022-11-15T00:08:41.307Z,10.80
2022-11-15T00:11:12.723Z,10.40
2022-11-15T00:13:41.281Z,10.67
2022-11-15T00:16:10.214Z,8.70
2022-11-15T00:18:37.979Z,9.53
2022-11-15T00:21:11.738Z,8.60
2022-11-15T00:23:38.878Z,10.17
2022-11-15T00:26:06.559Z,11.30
2022-11-15T00:28:33.826Z,11.80
2022-11-15T00:31:14.850Z,9.60
2022-11-15T00:33:46.126Z,9.70
2022-11-15T00:36:13.491Z,12.03
2022-11-15T00:38:41.658Z,10.27
2022-11-15T00:41:10.052Z,9.87
2022-11-15T00:43:37.761Z,9.20
2022-11-15T00:46:05.037Z,9.47
2022-11-15T00:48:32.377Z,9.53
2022-11-15T00:50:59.430Z,9.63
2022-11-15T00:53:26.383Z,8.43
2022-11-15T00:55:53.758Z,8.33
2022-11-15T00:58:20.951Z,10.73
2022-11-15T01:00:47.928Z,9.30
2022-11-15T01:03:14.867Z,7.83
2022-11-15T01:05:41.745Z,10.63
2022-11-15T01:08:15.632Z,8.63
2022-11-15T01:10:43.177Z,8.07
2022-11-15T01:13:10.083Z,6.97
2022-11-15T01:15:41.825Z,8.03
2022-11-15T01:18:09.006Z,7.90
2022-11-15T01:20:40.515Z,9.00
2022-11-15T01:23:07.403Z,9.30
2022-11-15T01:25:34.971Z,8.07
2022-11-15T01:28:01.824Z,7.63
2022-11-15T01:30:28.708Z,8.30
2022-11-15T01:32:55.591Z,8.90
2022-11-15T01:35:22.525Z,7.27
2022-11-15T01:37:49.413Z,8.00
2022-11-15T01:40:16.504Z,7.23
2022-11-15T01:42:43.349Z,10.17
2022-11-15T01:45:19.340Z,7.73
2022-11-15T01:47:54.928Z,11.97
2022-11-15T01:50:33.584Z,8.90
2022-11-15T01:53:00.684Z,10.07
2022-11-15T01:55:29.878Z,7.37
2022-11-15T01:58:05.148Z,6.90
2022-11-15T02:00:33.148Z,7.30
2022-11-15T02:03:00.532Z,7.33
2022-11-15T02:05:27.464Z,8.63
2022-11-15T02:07:55.431Z,7.83
2022-11-15T02:10:25.836Z,7.30
2022-11-15T02:12:55.744Z,7.20
2022-11-15T02:15:32.704Z,6.13
2022-11-15T02:18:28.900Z,6.63
2022-11-15T02:21:34.319Z,8.93
2022-11-15T02:24:28.156Z,8.50
2022-11-15T02:28:00.357Z,8.80
2022-11-15T02:30:53.597Z,6.97
2022-11-15T02:33:57.321Z,6.00
2022-11-15T02:36:50.077Z,7.13
2022-11-15T02:39:42.619Z,6.93
2022-11-15T02:42:41.577Z,7.23
2022-11-15T02:45:22.929Z,6.07
2022-11-15T02:47:57.615Z,5.97
2022-11-15T02:50:31.060Z,5.70
2022-11-15T02:52:57.983Z,7.70
2022-11-15T02:55:36.342Z,6.40
2022-11-15T02:58:32.358Z,7.90
2022-11-15T03:01:29.162Z,7.87
2022-11-15T03:04:26.929Z,6.80
2022-11-15T03:07:34.218Z,6.80
2022-11-15T03:10:25.065Z,7.43
2022-11-15T03:13:14.575Z,6.13
2022-11-15T03:16:03.714Z,6.77
2022-11-15T03:18:41.648Z,6.00
2022-11-15T03:21:13.407Z,5.00
2022-11-15T03:23:42.469Z,5.90
2022-11-15T03:26:15.614Z,7.77
2022-11-15T03:29:28.952Z,7.37
2022-11-15T03:32:07.189Z,5.47
2022-11-15T03:34:57.099Z,9.23
2022-11-15T03:37:38.127Z,6.13
2022-11-15T03:40:06.842Z,5.90
2022-11-15T03:42:49.582Z,5.90
2022-11-15T03:45:40.372Z,6.23
2022-11-15T03:48:19.990Z,6.63
2022-11-15T03:50:48.322Z,6.07
2022-11-15T03:53:15.701Z,5.80
2022-11-15T03:55:42.546Z,5.47
2022-11-15T03:58:09.550Z,5.87
2022-11-15T04:00:36.534Z,6.50
2022-11-15T04:03:03.573Z,8.20
2022-11-15T04:05:30.441Z,6.07
2022-11-15T04:07:57.302Z,5.63
2022-11-15T04:10:24.519Z,6.97
2022-11-15T04:12:51.431Z,5.70
2022-11-15T04:15:23.207Z,8.87
2022-11-15T04:17:55.331Z,5.93
2022-11-15T04:21:00.552Z,6.70
2022-11-15T04:23:46.041Z,6.27
2022-11-15T04:26:20.308Z,6.57
2022-11-15T04:29:06.007Z,5.30
2022-11-15T04:31:32.899Z,5.87
2022-11-15T04:34:00.234Z,6.37
2022-11-15T04:36:45.961Z,6.20
2022-11-15T04:39:12.801Z,5.10
2022-11-15T04:41:39.667Z,5.30
2022-11-15T04:44:06.495Z,5.50
2022-11-15T04:46:33.543Z,5.20
2022-11-15T04:49:00.455Z,6.10
2022-11-15T04:51:27.439Z,7.53
2022-11-15T04:53:54.304Z,5.93
2022-11-15T04:56:21.184Z,7.90
2022-11-15T04:58:50.831Z,6.83
2022-11-15T05:01:18.624Z,6.07
2022-11-15T05:04:04.928Z,7.20
2022-11-15T05:06:32.384Z,5.70
2022-11-15T05:08:59.301Z,5.40
2022-11-15T05:11:27.695Z,7.27
2022-11-15T05:13:55.460Z,6.83
2022-11-15T05:16:22.487Z,8.70
2022-11-15T05:18:54.372Z,11.00
2022-11-15T05:21:22.289Z,8.20
2022-11-15T05:23:49.177Z,7.50
2022-11-15T05:26:19.168Z,6.97
2022-11-15T05:28:46.368Z,5.87
2022-11-15T05:31:17.327Z,6.60
2022-11-15T05:33:45.415Z,6.37
2022-11-15T05:36:47.595Z,8.47
2022-11-15T05:39:14.509Z,7.33
2022-11-15T05:42:05.547Z,6.50
2022-11-15T05:44:34.696Z,7.03
2022-11-15T05:47:04.045Z,8.03
2022-11-15T05:49:38.605Z,6.57
2022-11-15T05:52:12.274Z,9.77
2022-11-15T05:54:40.446Z,10.80
2022-11-15T05:57:08.115Z,8.00
2022-11-15T05:59:36.648Z,8.20
2022-11-15T06:02:03.771Z,7.63
2022-11-15T06:04:30.648Z,8.83
2022-11-15T06:07:00.200Z,6.43
2022-11-15T06:09:27.068Z,7.67
2022-11-15T06:11:53.942Z,9.50
2022-11-15T06:14:21.166Z,8.97
2022-11-15T06:16:48.142Z,10.00
2022-11-15T06:19:14.997Z,9.27
2022-11-15T06:21:42.001Z,9.83
2022-11-15T06:24:09.115Z,10.37
2022-11-15T06:26:36.971Z,7.00
2022-11-15T06:29:05.911Z,6.83
2022-11-15T06:31:34.414Z,8.63
2022-11-15T06:34:01.267Z,8.30
2022-11-15T06:36:28.133Z,7.57
2022-11-15T06:38:54.981Z,7.37
2022-11-15T06:41:22.143Z,8.90
2022-11-15T06:43:49.030Z,10.60
2022-11-15T06:46:15.902Z,10.10
2022-11-15T06:48:42.766Z,13.07
2022-11-15T06:51:09.703Z,9.40
2022-11-15T06:53:37.341Z,8.57
2022-11-15T06:56:08.306Z,8.30
2022-11-15T06:58:35.878Z,9.17
2022-11-15T07:01:11.629Z,8.70
2022-11-15T07:03:43.855Z,11.50
2022-11-15T07:06:11.435Z,10.67
2022-11-15T07:08:38.968Z,7.70
2022-11-15T07:11:08.655Z,7.70
2022-11-15T07:13:37.953Z,8.00
2022-11-15T07:16:09.743Z,6.87
2022-11-15T07:18:40.532Z,8.10
2022-11-15T07:21:11.752Z,6.40
2022-11-15T07:23:40.398Z,7.20
2022-11-15T07:26:09.231Z,10.63
2022-11-15T07:28:36.932Z,10.73
2022-11-15T07:31:07.572Z,7.10
2022-11-15T07:33:36.396Z,6.47
2022-11-15T07:36:07.167Z,8.10
2022-11-15T07:38:42.177Z,7.40
2022-11-15T07:41:10.144Z,6.93
2022-11-15T07:43:37.110Z,7.27
2022-11-15T07:46:10.285Z,10.13
2022-11-15T07:48:45.316Z,8.93
2022-11-15T07:51:15.076Z,8.90
2022-11-15T07:53:44.520Z,7.80
2022-11-15T07:56:12.921Z,8.47
2022-11-15T07:58:40.109Z,8.63
2022-11-15T08:01:11.102Z,9.37
2022-11-15T08:03:38.646Z,10.03
2022-11-15T08:06:06.416Z,7.40
2022-11-15T08:08:33.280Z,10.43
2022-11-15T08:11:01.481Z,7.90
2022-11-15T08:13:28.984Z,7.00
2022-11-15T08:16:06.142Z,8.27
2022-11-15T08:18:33.297Z,10.30
2022-11-15T08:21:02.520Z,7.93
2022-11-15T08:23:30.010Z,7.03
2022-11-15T08:26:03.581Z,9.17
2022-11-15T08:28:32.693Z,7.93
2022-11-15T08:30:59.581Z,7.00
2022-11-15T08:33:26.609Z,9.27
2022-11-15T08:35:56.621Z,6.73
2022-11-15T08:38:23.606Z,7.50
2022-11-15T08:40:59.882Z,7.70
2022-11-15T08:43:26.760Z,6.43
2022-11-15T08:45:57.937Z,8.93
2022-11-15T08:48:24.807Z,5.70
2022-11-15T08:50:57.176Z,7.70
2022-11-15T08:53:24.447Z,6.50
2022-11-15T08:55:51.298Z,7.50
2022-11-15T08:58:18.174Z,6.20
2022-11-15T09:03:53.611Z,7.60
2022-11-15T09:06:20.451Z,5.80
2022-11-15T09:08:48.380Z,5.73
2022-11-15T09:11:17.386Z,7.20
2022-11-15T09:13:44.321Z,6.13
2022-11-15T09:16:12.870Z,7.20
2022-11-15T09:18:39.871Z,7.97
2022-11-15T09:21:06.763Z,5.97
2022-11-15T09:23:33.847Z,5.10
2022-11-15T09:26:05.947Z,6.10
2022-11-15T09:28:34.827Z,5.67
2022-11-15T09:31:06.797Z,5.30
2022-11-15T09:33:34.085Z,6.63
2022-11-15T09:36:08.881Z,5.90
2022-11-15T09:38:36.799Z,7.57
2022-11-15T09:41:55.720Z,5.77
2022-11-15T09:45:11.539Z,6.57
2022-11-15T09:48:09.128Z,5.50
2022-11-15T09:51:02.128Z,5.90
2022-11-15T09:56:49.130Z,5.63
2022-11-15T09:59:56.624Z,5.67
2022-11-15T10:03:12.152Z,5.43
2022-11-15T10:05:55.368Z,5.67
2022-11-15T10:09:19.959Z,4.40
2022-11-15T10:11:50.603Z,4.40
2022-11-15T10:14:25.151Z,4.87
2022-11-15T10:17:31.172Z,12.53
2022-11-15T10:20:22.370Z,4.03
2022-11-15T10:23:08.204Z,3.93
2022-11-15T10:25:36.023Z,5.17
2022-11-15T10:28:16.644Z,4.83
2022-11-15T10:30:50.291Z,4.53
2022-11-15T10:33:39.172Z,5.87
2022-11-15T10:36:23.005Z,4.33
2022-11-15T10:38:50.084Z,4.87
2022-11-15T10:41:28.764Z,9.07
2022-11-15T10:44:19.952Z,5.57
2022-11-15T10:46:57.458Z,5.73
2022-11-15T10:49:31.552Z,4.37
2022-11-15T10:52:20.811Z,7.90
2022-11-15T10:55:18.936Z,4.17
2022-11-15T10:58:03.373Z,3.90
2022-11-15T11:00:42.677Z,3.97
2022-11-15T11:03:39.120Z,4.23
2022-11-15T11:06:19.198Z,5.00
2022-11-15T11:09:06.749Z,4.20
2022-11-15T11:11:52.923Z,4.17
2022-11-15T11:14:34.842Z,5.10
2022-11-15T11:17:16.500Z,4.07
2022-11-15T11:20:20.540Z,4.40
2022-11-15T11:24:04.261Z,5.43
2022-11-15T11:26:56.952Z,5.87
2022-11-15T11:30:01.274Z,5.50
2022-11-15T11:33:19.105Z,5.47
2022-11-15T11:36:32.498Z,5.63
2022-11-15T11:40:13.736Z,7.10
2022-11-15T11:43:34.563Z,4.87
2022-11-15T11:46:32.251Z,4.73
2022-11-15T11:49:46.801Z,5.23
2022-11-15T11:52:34.022Z,5.90
2022-11-15T11:55:45.497Z,5.30
2022-11-15T11:58:39.898Z,4.73
2022-11-15T12:01:32.368Z,6.97
2022-11-15T12:04:27.970Z,4.67
2022-11-15T12:07:21.034Z,6.23
2022-11-15T12:10:05.692Z,7.10
2022-11-15T12:13:15.571Z,6.10
2022-11-15T12:16:04.963Z,5.50
2022-11-15T12:18:36.306Z,5.80
2022-11-15T12:21:28.666Z,5.50
2022-11-15T12:24:12.430Z,6.83
2022-11-15T12:26:56.260Z,6.80
2022-11-15T12:29:53.199Z,6.63
2022-11-15T12:32:35.699Z,5.60
2022-11-15T12:35:21.926Z,5.73
2022-11-15T12:37:56.517Z,7.00
2022-11-15T12:41:12.490Z,6.57
2022-11-15T12:43:44.268Z,5.77
2022-11-15T12:46:40.333Z,6.77
2022-11-15T12:49:28.258Z,5.80
2022-11-15T12:51:57.999Z,5.33
2022-11-15T12:54:24.749Z,6.83
2022-11-15T12:57:09.903Z,6.20
2022-11-15T13:00:05.027Z,5.80
2022-11-15T13:02:46.297Z,6.47
2022-11-15T13:05:23.441Z,5.83
2022-11-15T13:07:50.571Z,6.20
2022-11-15T13:10:17.295Z,6.60
2022-11-15T13:12:46.835Z,8.27
2022-11-15T13:15:13.581Z,7.23
2022-11-15T13:18:30.341Z,6.33
2022-11-15T13:21:02.197Z,5.93
2022-11-15T13:23:30.126Z,7.17
2022-11-15T13:26:18.836Z,9.37
2022-11-15T13:28:55.590Z,7.03
2022-11-15T13:31:41.321Z,6.60
2022-11-15T13:34:51.650Z,7.93
2022-11-15T13:37:37.307Z,7.53
2022-11-15T13:40:35.238Z,8.00
2022-11-15T13:43:29.153Z,8.00
2022-11-15T13:46:32.069Z,4.80
2022-11-15T13:49:09.184Z,5.43
2022-11-15T13:51:55.705Z,6.17
2022-11-15T13:54:39.751Z,6.40
2022-11-15T13:57:19.712Z,6.17
2022-11-15T14:00:01.955Z,9.50
2022-11-15T14:02:35.000Z,8.00
2022-11-15T14:05:31.317Z,7.93
2022-11-15T14:08:13.065Z,6.40
2022-11-15T14:10:41.145Z,7.57
2022-11-15T14:13:31.477Z,5.00
2022-11-15T14:16:21.486Z,6.70
2022-11-15T14:18:54.152Z,6.43
2022-11-15T14:21:21.673Z,6.53
2022-11-15T14:23:49.884Z,6.60
2022-11-15T14:26:35.619Z,6.70
2022-11-15T14:29:27.980Z,5.00
2022-11-15T14:32:15.235Z,5.00
2022-11-15T14:34:42.705Z,6.00
2022-11-15T14:37:33.941Z,6.40
2022-11-15T14:40:06.575Z,5.47
2022-11-15T14:42:33.807Z,6.33
2022-11-15T14:45:00.729Z,5.27
2022-11-15T14:47:27.574Z,5.00
2022-11-15T14:49:54.433Z,6.20
2022-11-15T14:52:32.999Z,6.07
2022-11-15T14:55:03.104Z,5.20
2022-11-15T14:57:31.254Z,8.93
2022-11-15T14:59:58.144Z,5.07
2022-11-15T15:02:28.243Z,5.90
2022-11-15T15:04:55.574Z,6.13
2022-11-15T15:07:23.275Z,5.87
2022-11-15T15:09:50.182Z,12.50
2022-11-15T15:12:24.353Z,17.50
2022-11-15T15:14:51.871Z,12.23
2022-11-15T15:17:18.902Z,6.53
2022-11-15T15:19:46.089Z,6.90
2022-11-15T15:22:22.668Z,6.40
2022-11-15T15:24:49.529Z,11.37
2022-11-15T15:27:16.453Z,6.13
2022-11-15T15:29:43.339Z,6.40
2022-11-15T15:32:11.843Z,7.40
2022-11-15T15:34:38.703Z,5.93
2022-11-15T15:37:26.971Z,7.60
2022-11-15T15:39:57.410Z,5.67
2022-11-15T15:42:24.741Z,6.80
2022-11-15T15:44:52.396Z,5.30
2022-11-15T15:47:24.515Z,11.97
2022-11-15T15:49:51.980Z,7.07
2022-11-15T15:52:20.171Z,7.60
2022-11-15T15:54:47.024Z,8.50
2022-11-15T15:57:15.552Z,7.30
2022-11-15T15:59:42.991Z,10.07
2022-11-15T16:02:18.658Z,12.07
2022-11-15T16:04:45.526Z,16.27
2022-11-15T16:07:24.437Z,15.13
2022-11-15T16:10:01.059Z,18.70
2022-11-15T16:12:35.803Z,16.47
2022-11-15T16:15:04.180Z,11.00
2022-11-15T16:17:47.805Z,14.70
2022-11-15T16:20:35.492Z,10.00
2022-11-15T16:23:09.049Z,14.00
2022-11-15T16:25:46.620Z,13.00
2022-11-15T16:28:27.781Z,11.93
2022-11-15T16:31:23.915Z,18.60
2022-11-15T16:33:50.963Z,14.07
2022-11-15T16:36:30.823Z,10.47
2022-11-15T16:38:59.627Z,13.70
2022-11-15T16:41:27.310Z,9.93
2022-11-15T16:43:54.319Z,12.97
2022-11-15T16:46:29.865Z,11.80
2022-11-15T16:48:57.333Z,12.70
2022-11-15T16:51:24.388Z,12.27
2022-11-15T16:53:51.433Z,12.60
2022-11-15T16:56:30.403Z,12.90
2022-11-15T16:59:00.716Z,11.67
2022-11-15T17:01:36.173Z,11.20
2022-11-15T17:04:12.803Z,14.83
2022-11-15T17:06:42.008Z,9.83
2022-11-15T17:09:20.240Z,15.60
2022-11-15T17:11:47.364Z,13.73
2022-11-15T17:14:14.429Z,15.87
2022-11-15T17:16:42.504Z,20.57
2022-11-15T17:19:20.935Z,19.20
2022-11-15T17:21:49.536Z,17.30
2022-11-15T17:24:17.317Z,19.63
2022-11-15T17:26:44.285Z,25.37
2022-11-15T17:29:11.350Z,26.53
2022-11-15T17:31:38.731Z,18.87
2022-11-15T17:34:07.593Z,16.63
2022-11-15T17:36:35.497Z,21.57
2022-11-15T17:39:04.700Z,16.10
2022-11-15T17:41:32.225Z,15.40
2022-11-15T17:44:01.782Z,13.87
2022-11-15T17:46:29.718Z,15.57
2022-11-15T17:48:57.937Z,16.07
2022-11-15T17:51:25.645Z,13.70
2022-11-15T17:53:53.192Z,12.90
2022-11-15T17:56:23.789Z,14.67
2022-11-15T17:58:58.266Z,13.37
2022-11-15T18:01:35.743Z,11.17
2022-11-15T18:04:09.970Z,14.23
2022-11-15T18:06:37.182Z,15.40
2022-11-15T18:09:07.172Z,16.73
2022-11-15T18:11:41.881Z,13.17
2022-11-15T18:14:15.190Z,14.97
2022-11-15T18:16:42.904Z,13.40
2022-11-15T18:19:13.595Z,16.77
2022-11-15T18:22:05.131Z,13.20
2022-11-15T18:24:36.522Z,14.73
2022-11-15T18:27:06.864Z,18.83
2022-11-15T18:29:37.831Z,15.90
2022-11-15T18:32:11.497Z,16.93
2022-11-15T18:34:38.938Z,16.80
2022-11-15T18:37:06.170Z,15.07
2022-11-15T18:39:33.135Z,16.57
2022-11-15T18:42:00.444Z,17.20
2022-11-15T18:44:32.628Z,15.30
2022-11-15T18:46:59.467Z,14.30
2022-11-15T18:49:26.685Z,11.67
2022-11-15T18:51:53.729Z,13.87
2022-11-15T18:54:20.582Z,13.47
2022-11-15T18:56:47.528Z,12.77
2022-11-15T18:59:16.057Z,12.47
2022-11-15T19:01:49.916Z,12.63
2022-11-15T19:04:20.291Z,13.43
2022-11-15T19:06:49.972Z,13.27
2022-11-15T19:09:19.455Z,10.97
2022-11-15T19:11:51.209Z,14.37
2022-11-15T19:14:23.717Z,16.73
2022-11-15T19:16:51.989Z,10.37
2022-11-15T19:19:25.458Z,10.63
2022-11-15T19:21:53.339Z,11.30
2022-11-15T19:24:20.910Z,11.80
2022-11-15T19:26:47.863Z,11.43
2022-11-15T19:29:15.537Z,12.43
2022-11-15T19:31:42.920Z,10.93
2022-11-15T19:34:10.548Z,14.20
2022-11-15T19:36:44.219Z,12.73
2022-11-15T19:39:14.952Z,11.97
2022-11-15T19:41:44.623Z,12.60
2022-11-15T19:44:13.483Z,13.40
2022-11-15T19:46:41.671Z,11.77
2022-11-15T19:49:10.895Z,11.50
2022-11-15T19:51:41.422Z,11.07
2022-11-15T19:54:09.671Z,10.90
2022-11-15T19:56:38.026Z,9.90
2022-11-15T19:59:05.672Z,13.57
2022-11-15T20:01:37.822Z,13.73
2022-11-15T20:04:06.660Z,15.77
2022-11-15T20:06:42.260Z,12.03
2022-11-15T20:09:15.106Z,12.80
2022-11-15T20:11:42.473Z,13.47
2022-11-15T20:14:11.501Z,12.50
2022-11-15T20:16:39.516Z,15.20
2022-11-15T20:19:08.398Z,21.80
2022-11-15T20:21:36.063Z,14.57
2022-11-15T20:24:03.884Z,16.60
2022-11-15T20:26:32.068Z,27.30
2022-11-15T20:29:01.930Z,12.20
2022-11-15T20:31:30.798Z,14.10
2022-11-15T20:33:58.421Z,10.90
2022-11-15T20:36:25.490Z,15.60
2022-11-15T20:38:59.242Z,12.83
2022-11-15T20:41:27.574Z,12.90
2022-11-15T20:43:54.999Z,11.03
2022-11-15T20:46:22.235Z,16.47
2022-11-15T20:48:49.069Z,13.73
2022-11-15T20:51:18.813Z,14.50
2022-11-15T20:53:47.719Z,12.70
2022-11-15T20:56:20.657Z,11.70
2022-11-15T20:58:50.284Z,13.53
2022-11-15T21:01:23.513Z,13.20
2022-11-15T21:03:54.105Z,10.57
2022-11-15T21:06:23.331Z,13.93
2022-11-15T21:09:13.782Z,15.27
2022-11-15T21:12:17.057Z,14.37
2022-11-15T21:14:45.007Z,14.60
2022-11-15T21:17:12.190Z,11.77
2022-11-15T21:19:39.084Z,12.80
2022-11-15T21:22:09.186Z,12.43
2022-11-15T21:24:36.045Z,15.20
2022-11-15T21:27:03.734Z,15.00
2022-11-15T21:29:39.935Z,19.27
2022-11-15T21:32:09.853Z,16.90
2022-11-15T21:34:37.499Z,16.40
2022-11-15T21:37:05.530Z,21.97
2022-11-15T21:39:32.512Z,15.60
2022-11-15T21:41:59.396Z,20.30
2022-11-15T21:44:26.314Z,18.50
2022-11-15T21:46:53.138Z,16.93
2022-11-15T21:49:20.802Z,20.57
2022-11-15T21:51:48.042Z,25.83
2022-11-15T21:54:15.786Z,24.00
2022-11-15T21:56:43.151Z,27.93
2022-11-15T21:59:10.367Z,27.63
2022-11-15T22:01:55.931Z,24.57
2022-11-15T22:04:23.941Z,25.40
2022-11-15T22:06:51.502Z,27.13
2022-11-15T22:09:18.443Z,25.20
2022-11-15T22:11:45.640Z,21.87
2022-11-15T22:14:12.572Z,16.30
2022-11-15T22:16:39.457Z,21.03
2022-11-15T22:19:06.351Z,20.97
2022-11-15T22:21:33.331Z,20.00
2022-11-15T22:24:00.310Z,22.37
2022-11-15T22:26:27.247Z,22.47
2022-11-15T22:28:54.184Z,22.17
2022-11-15T22:31:21.124Z,19.27
2022-11-15T22:33:48.112Z,18.83
2022-11-15T22:36:15.271Z,20.77
2022-11-15T22:38:42.245Z,24.10
2022-11-15T22:41:09.401Z,18.80
2022-11-15T22:43:36.831Z,19.30
2022-11-15T22:46:05.540Z,18.60
2022-11-15T22:48:37.883Z,18.30
2022-11-15T22:51:06.848Z,20.47
2022-11-15T22:53:34.123Z,21.00
2022-11-15T22:56:04.542Z,18.53
2022-11-15T22:58:33.896Z,20.33
2022-11-15T23:01:04.864Z,20.23
2022-11-15T23:03:33.982Z,18.97
2022-11-15T23:06:05.263Z,18.67
2022-11-15T23:08:33.298Z,20.00
2022-11-15T23:11:22.249Z,23.50
2022-11-15T23:13:52.457Z,19.07
2022-11-15T23:16:23.591Z,19.70
2022-11-15T23:19:00.313Z,18.07
2022-11-15T23:22:02.464Z,16.00
2022-11-15T23:24:32.662Z,18.23
2022-11-15T23:27:06.247Z,20.13
2022-11-15T23:29:59.970Z,18.53
2022-11-15T23:32:45.285Z,17.07
2022-11-15T23:35:12.410Z,17.90
2022-11-15T23:37:39.474Z,23.23
2022-11-15T23:40:08.057Z,22.17
2022-11-15T23:42:35.019Z,24.23
2022-11-15T23:45:01.905Z,28.33
2022-11-15T23:47:28.909Z,24.80
2022-11-15T23:49:55.803Z,23.90
2022-11-15T23:52:23.139Z,21.50
2022-11-15T23:54:50.105Z,21.57
2022-11-15T23:57:17.026Z,21.03
2022-11-15T23:59:43.987Z,21.47
